Rain From: 21-07-2018 02:00 Until: 16:00 warning for: Rain Level: Yellow info button
suomi:
Sadevaroitus: Aamuyöstä alkaen voi sataa rankasti, yli 20 mm tunnissa.

svenska:
Nederbördsvarning: Från och med efternatten kan det förekomma synnerligen riklig nederbörd, mer än 20 mm i timmen.

english:
Heavy rain warning: From the early morning on heavy rain of more than 20 mm per hour can be expected. 

Forest fire From: 20-07-2018 23:00 Until: 21-07-2018 11:00 warning for: Forest fire Level: Yellow info button
suomi:
Metsäpalovaroitus on voimassa.

svenska:
Varning för skogsbrand gäller.

english:
A forest fire warning is in force. 


Thunder radar more information blitzortung!


Löydät sääaseman tiedot myös:

European Weather Network

Finland Weather Exchange

Weather Underground

AWEKAS



Weather Underground säähistoriasivu

Päivittäin yhteenveto Helmikuu 14, 2017 Yksiköt:  Molemmat    Englantilaiset   Metriset
« Edellinen Päivä
Seuraava Päivä »
Päivittäin Viikoittain Kuukausittain Vuosittain Mukautettu
  Korkea: Matala: Keskiarvo:
Lämpötila: TemperatureC °F /  -17.8 °C -2.6 °F /  -19.2 °C 3 °F /  -16.1 °C
Kastepiste: DewpointC °F /  -17.8 °C -3.3 °F /  -19.6 °C 0.8 °F /  -17.3 °C
Kosteus: Humidity % 78 % 85 %
Tuulen nopeus: WindSpeedKMH mph /  0 km/h - 1.5 mph /  2.4 km/h
Tuulenpuuska: WindSpeedGustKMH mph /  0 km/h - -
Tuuli:- - NW
Ilmanpaine: PressurehPa in /  0 hPa 1021.2 in /  34577.8 hPa -
Sade: 0.0 in /  0 mm    
Historical Graphs
 
 
Taulukkotiedot Helmikuu 14, 2017
Aika Lämpötila Kastepiste Ilmanpaine Tuuli Tuulen nopeus Tuulenpuuska Kosteus Sademäärä (tunneittain)
TemperatureC °F /  -17.8 °C DewpointC °F /  -17.8 °C PressurehPa in /  0 hPa Calm     Humidity % HourlyPrecipMM in /  0 mm
00:00 5.7 °F /  -14.6 °C 2.3 °F /  -16.5 °C 1021.6 in /  34591.4 hPa NW 6.4 mph /  10.3 km/h 14.5 mph /  23.3 km/h 79 % 0.0 in /  0 mm
00:15 5.7 °F /  -14.6 °C 2.4 °F /  -16.4 °C 1021.6 in /  34591.4 hPa NW 4.8 mph /  7.7 km/h 16.1 mph /  25.9 km/h 79 % 0.0 in /  0 mm
00:30 5.7 °F /  -14.6 °C 2.4 °F /  -16.4 °C 1021.2 in /  34577.8 hPa NW 6.4 mph /  10.3 km/h 17.7 mph /  28.5 km/h 79 % 0.0 in /  0 mm
00:45 5.6 °F /  -14.7 °C 2.3 °F /  -16.5 °C 1021.9 in /  34601.5 hPa NW 4.8 mph /  7.7 km/h 12.9 mph /  20.8 km/h 79 % 0.0 in /  0 mm
01:00 5.6 °F /  -14.7 °C 2.2 °F /  -16.6 °C 1021.9 in /  34601.5 hPa NW 4.8 mph /  7.7 km/h 16.1 mph /  25.9 km/h 79 % 0.0 in /  0 mm
01:15 5.6 °F /  -14.7 °C 2.2 °F /  -16.6 °C 1021.6 in /  34591.4 hPa WNW 4.8 mph /  7.7 km/h 14.5 mph /  23.3 km/h 79 % 0.0 in /  0 mm
01:45 5.4 °F /  -14.8 °C 2.0 °F /  -16.7 °C 1021.9 in /  34601.5 hPa NW 6.4 mph /  10.3 km/h 14.5 mph /  23.3 km/h 79 % 0.0 in /  0 mm
02:15 4.9 °F /  -15.1 °C 1.9 °F /  -16.7 °C 1021.6 in /  34591.4 hPa NW 6.4 mph /  10.3 km/h 17.7 mph /  28.5 km/h 81 % 0.0 in /  0 mm
02:30 4.8 °F /  -15.1 °C 1.8 °F /  -16.8 °C 1021.6 in /  34591.4 hPa NW 6.4 mph /  10.3 km/h 16.1 mph /  25.9 km/h 81 % 0.0 in /  0 mm
02:45 4.8 °F /  -15.1 °C 1.8 °F /  -16.8 °C 1021.9 in /  34601.5 hPa NW 6.4 mph /  10.3 km/h 16.1 mph /  25.9 km/h 81 % 0.0 in /  0 mm
03:00 4.6 °F /  -15.2 °C 1.8 °F /  -16.8 °C 1021.9 in /  34601.5 hPa NW 6.4 mph /  10.3 km/h 14.5 mph /  23.3 km/h 82 % 0.0 in /  0 mm
03:15 4.5 °F /  -15.3 °C 1.7 °F /  -16.8 °C 1021.6 in /  34591.4 hPa NW 6.4 mph /  10.3 km/h 14.5 mph /  23.3 km/h 82 % 0.0 in /  0 mm
03:45 3.9 °F /  -15.6 °C 1.3 °F /  -17.1 °C 1022.2 in /  34611.7 hPa West 1.6 mph /  2.6 km/h 11.3 mph /  18.2 km/h 83 % 0.0 in /  0 mm
04:00 3.7 °F /  -15.7 °C 1.3 °F /  -17.1 °C 1022.2 in /  34611.7 hPa WNW 1.6 mph /  2.6 km/h 8.0 mph /  12.9 km/h 84 % 0.0 in /  0 mm
04:15 3.5 °F /  -15.8 °C 1.2 °F /  -17.1 °C 1022.6 in /  34625.2 hPa WNW 1.6 mph /  2.6 km/h 14.5 mph /  23.3 km/h 85 % 0.0 in /  0 mm
04:30 3.3 °F /  -15.9 °C 1.0 °F /  -17.2 °C 1022.6 in /  34625.2 hPa Calm   6.4 mph /  10.3 km/h 85 % 0.0 in /  0 mm
04:45 3.2 °F /  -16 °C 1.0 °F /  -17.2 °C 1022.9 in /  34635.4 hPa Calm   4.8 mph /  7.7 km/h 86 % 0.0 in /  0 mm
05:00 3.0 °F /  -16.1 °C 1.0 °F /  -17.2 °C 1022.9 in /  34635.4 hPa Calm   4.8 mph /  7.7 km/h 87 % 0.0 in /  0 mm
05:15 3.2 °F /  -16 °C 1.1 °F /  -17.2 °C 1023.6 in /  34659.1 hPa WNW 1.6 mph /  2.6 km/h 8.0 mph /  12.9 km/h 86 % 0.0 in /  0 mm
05:30 3.3 °F /  -15.9 °C 1.2 °F /  -17.1 °C 1023.2 in /  34645.6 hPa WNW 3.2 mph /  5.1 km/h 12.9 mph /  20.8 km/h 86 % 0.0 in /  0 mm
05:45 3.4 °F /  -15.9 °C 1.3 °F /  -17.1 °C 1023.6 in /  34659.1 hPa WNW 1.6 mph /  2.6 km/h 12.9 mph /  20.8 km/h 86 % 0.0 in /  0 mm
06:00 3.3 °F /  -15.9 °C 1.2 °F /  -17.1 °C 1023.6 in /  34659.1 hPa WNW 3.2 mph /  5.1 km/h 17.7 mph /  28.5 km/h 86 % 0.0 in /  0 mm
06:15 3.4 °F /  -15.9 °C 1.3 °F /  -17.1 °C 1023.6 in /  34659.1 hPa NW 3.2 mph /  5.1 km/h 12.9 mph /  20.8 km/h 86 % 0.0 in /  0 mm
06:30 3.7 °F /  -15.7 °C 1.4 °F /  -17 °C 1023.9 in /  34669.3 hPa NW 8.0 mph /  12.9 km/h 12.9 mph /  20.8 km/h 85 % 0.0 in /  0 mm
06:45 3.8 °F /  -15.7 °C 1.5 °F /  -16.9 °C 1024.3 in /  34682.8 hPa NW 4.8 mph /  7.7 km/h 9.7 mph /  15.6 km/h 85 % 0.0 in /  0 mm
07:00 3.6 °F /  -15.8 °C 1.3 °F /  -17.1 °C 1024.3 in /  34682.8 hPa NW 3.2 mph /  5.1 km/h 9.7 mph /  15.6 km/h 85 % 0.0 in /  0 mm
07:15 3.3 °F /  -15.9 °C 1.1 °F /  -17.2 °C 1024.6 in /  34693 hPa WNW 3.2 mph /  5.1 km/h 9.7 mph /  15.6 km/h 85 % 0.0 in /  0 mm
07:30 3.1 °F /  -16.1 °C 1.0 °F /  -17.2 °C 1024.6 in /  34693 hPa NW 1.6 mph /  2.6 km/h 8.0 mph /  12.9 km/h 86 % 0.0 in /  0 mm
07:45 2.9 °F /  -16.2 °C 0.8 °F /  -17.3 °C 1024.9 in /  34703.1 hPa WNW 1.6 mph /  2.6 km/h 8.0 mph /  12.9 km/h 86 % 0.0 in /  0 mm
08:00 2.7 °F /  -16.3 °C 0.7 °F /  -17.4 °C 1024.9 in /  34703.1 hPa NW 1.6 mph /  2.6 km/h 9.7 mph /  15.6 km/h 87 % 0.0 in /  0 mm
08:15 2.6 °F /  -16.3 °C 0.8 °F /  -17.3 °C 1025.6 in /  34726.8 hPa NW 1.6 mph /  2.6 km/h 8.0 mph /  12.9 km/h 88 % 0.0 in /  0 mm
08:30 2.4 °F /  -16.4 °C 0.6 °F /  -17.4 °C 1025.6 in /  34726.8 hPa Calm   6.4 mph /  10.3 km/h 88 % 0.0 in /  0 mm
08:45 2.3 °F /  -16.5 °C 0.7 °F /  -17.4 °C 1026.0 in /  34740.4 hPa Calm   4.8 mph /  7.7 km/h 89 % 0.0 in /  0 mm
09:00 2.3 °F /  -16.5 °C 0.7 °F /  -17.4 °C 1025.6 in /  34726.8 hPa WNW 1.6 mph /  2.6 km/h 6.4 mph /  10.3 km/h 89 % 0.0 in /  0 mm
09:15 2.2 °F /  -16.6 °C 0.6 °F /  -17.4 °C 1026.0 in /  34740.4 hPa Calm   3.2 mph /  5.1 km/h 89 % 0.0 in /  0 mm
09:45 2.3 °F /  -16.5 °C 0.9 °F /  -17.3 °C 1026.6 in /  34760.7 hPa Calm   4.8 mph /  7.7 km/h 90 % 0.0 in /  0 mm
10:00 2.7 °F /  -16.3 °C 1.0 °F /  -17.2 °C 1026.6 in /  34760.7 hPa Calm   1.6 mph /  2.6 km/h 89 % 0.0 in /  0 mm
10:15 2.8 °F /  -16.2 °C 1.2 °F /  -17.1 °C 1026.6 in /  34760.7 hPa WNW 1.6 mph /  2.6 km/h 6.4 mph /  10.3 km/h 89 % 0.0 in /  0 mm
10:30 3.1 °F /  -16.1 °C 1.3 °F /  -17.1 °C 1026.6 in /  34760.7 hPa Calm   4.8 mph /  7.7 km/h 88 % 0.0 in /  0 mm
10:45 3.6 °F /  -15.8 °C 1.6 °F /  -16.9 °C 1026.6 in /  34760.7 hPa NW 1.6 mph /  2.6 km/h 9.7 mph /  15.6 km/h 87 % 0.0 in /  0 mm
11:00 4.0 °F /  -15.6 °C 1.7 °F /  -16.8 °C 1027.3 in /  34784.4 hPa NW 1.6 mph /  2.6 km/h 8.0 mph /  12.9 km/h 85 % 0.0 in /  0 mm
11:15 4.1 °F /  -15.5 °C 1.8 °F /  -16.8 °C 1027.3 in /  34784.4 hPa NW 1.6 mph /  2.6 km/h 9.7 mph /  15.6 km/h 85 % 0.0 in /  0 mm
11:30 4.2 °F /  -15.4 °C 1.7 °F /  -16.8 °C 1027.7 in /  34797.9 hPa Calm   4.8 mph /  7.7 km/h 84 % 0.0 in /  0 mm
11:45 4.3 °F /  -15.4 °C 1.8 °F /  -16.8 °C 1027.7 in /  34797.9 hPa Calm   8.0 mph /  12.9 km/h 84 % 0.0 in /  0 mm
12:00 4.7 °F /  -15.2 °C 2.0 °F /  -16.7 °C 1027.7 in /  34797.9 hPa NW 1.6 mph /  2.6 km/h 8.0 mph /  12.9 km/h 83 % 0.0 in /  0 mm
12:15 4.9 °F /  -15.1 °C 2.3 °F /  -16.5 °C 1028.0 in /  34808.1 hPa Calm   4.8 mph /  7.7 km/h 83 % 0.0 in /  0 mm
12:45 5.4 °F /  -14.8 °C 2.3 °F /  -16.5 °C 1028.0 in /  34808.1 hPa Calm   1.6 mph /  2.6 km/h 80 % 0.0 in /  0 mm
13:00 5.8 °F /  -14.6 °C 2.6 °F /  -16.3 °C 1027.7 in /  34797.9 hPa NW 1.6 mph /  2.6 km/h 6.4 mph /  10.3 km/h 80 % 0.0 in /  0 mm
13:15 5.9 °F /  -14.5 °C 2.4 °F /  -16.4 °C 1028.0 in /  34808.1 hPa Calm     78 % 0.0 in /  0 mm
13:30 5.8 °F /  -14.6 °C 2.4 °F /  -16.4 °C 1028.0 in /  34808.1 hPa Calm     79 % 0.0 in /  0 mm
13:45 5.7 °F /  -14.6 °C 2.5 °F /  -16.4 °C 1028.0 in /  34808.1 hPa Calm     80 % 0.0 in /  0 mm
14:00 5.4 °F /  -14.8 °C 2.3 °F /  -16.5 °C 1028.0 in /  34808.1 hPa Calm     80 % 0.0 in /  0 mm
14:30 5.4 °F /  -14.8 °C 2.1 °F /  -16.6 °C 1028.0 in /  34808.1 hPa Calm   1.6 mph /  2.6 km/h 79 % 0.0 in /  0 mm
14:45 5.6 °F /  -14.7 °C 2.2 °F /  -16.6 °C 1028.0 in /  34808.1 hPa Calm     79 % 0.0 in /  0 mm
15:00 5.6 °F /  -14.7 °C 2.3 °F /  -16.5 °C 1028.0 in /  34808.1 hPa Calm     79 % 0.0 in /  0 mm
15:15 5.5 °F /  -14.7 °C 2.1 °F /  -16.6 °C 1028.3 in /  34818.2 hPa Calm   1.6 mph /  2.6 km/h 79 % 0.0 in /  0 mm
15:30 5.3 °F /  -14.8 °C 2.2 °F /  -16.6 °C 1028.3 in /  34818.2 hPa Calm   1.6 mph /  2.6 km/h 80 % 0.0 in /  0 mm
15:45 5.2 °F /  -14.9 °C 2.1 °F /  -16.6 °C 1028.3 in /  34818.2 hPa Calm     80 % 0.0 in /  0 mm
16:15 4.6 °F /  -15.2 °C 2.0 °F /  -16.7 °C 1028.3 in /  34818.2 hPa Calm     83 % 0.0 in /  0 mm
16:30 4.3 °F /  -15.4 °C 1.9 °F /  -16.7 °C 1028.0 in /  34808.1 hPa Calm     84 % 0.0 in /  0 mm
16:45 4.3 °F /  -15.4 °C 1.8 °F /  -16.8 °C 1028.0 in /  34808.1 hPa Calm     84 % 0.0 in /  0 mm
17:00 4.0 °F /  -15.6 °C 1.5 °F /  -16.9 °C 1028.3 in /  34818.2 hPa Calm     84 % 0.0 in /  0 mm
17:15 3.6 °F /  -15.8 °C 1.3 °F /  -17.1 °C 1029.0 in /  34841.9 hPa Calm   1.6 mph /  2.6 km/h 85 % 0.0 in /  0 mm
17:45 2.8 °F /  -16.2 °C 0.8 °F /  -17.3 °C 1028.7 in /  34831.8 hPa Calm   3.2 mph /  5.1 km/h 87 % 0.0 in /  0 mm
18:00 2.8 °F /  -16.2 °C 1.0 °F /  -17.2 °C 1028.7 in /  34831.8 hPa Calm     88 % 0.0 in /  0 mm
18:15 2.8 °F /  -16.2 °C 1.0 °F /  -17.2 °C 1029.0 in /  34841.9 hPa Calm     88 % 0.0 in /  0 mm
18:30 2.6 °F /  -16.3 °C 0.8 °F /  -17.3 °C 1029.3 in /  34852.1 hPa Calm     88 % 0.0 in /  0 mm
18:45 2.1 °F /  -16.6 °C 0.3 °F /  -17.6 °C 1029.3 in /  34852.1 hPa Calm     88 % 0.0 in /  0 mm
19:15 0.8 °F /  -17.3 °C -0.6 °F /  -18.1 °C 1029.3 in /  34852.1 hPa Calm     90 % 0.0 in /  0 mm
19:30 0.3 °F /  -17.6 °C -1.0 °F /  -18.3 °C 1029.3 in /  34852.1 hPa Calm     91 % 0.0 in /  0 mm
19:45 0.1 °F /  -17.7 °C -1.2 °F /  -18.4 °C 1029.3 in /  34852.1 hPa Calm     91 % 0.0 in /  0 mm
20:15 -0.8 °F /  -18.2 °C -1.8 °F /  -18.8 °C 1029.7 in /  34865.6 hPa Calm     93 % 0.0 in /  0 mm
20:30 -1.1 °F /  -18.4 °C -2.0 °F /  -18.9 °C 1030.0 in /  34875.8 hPa Calm     93 % 0.0 in /  0 mm
20:45 -1.4 °F /  -18.6 °C -2.4 °F /  -19.1 °C 1029.7 in /  34865.6 hPa Calm     93 % 0.0 in /  0 mm
21:00 -1.6 °F /  -18.7 °C -2.5 °F /  -19.2 °C 1029.7 in /  34865.6 hPa Calm     94 % 0.0 in /  0 mm
21:15 -1.7 °F /  -18.7 °C -2.6 °F /  -19.2 °C 1030.0 in /  34875.8 hPa Calm     94 % 0.0 in /  0 mm
21:30 -1.8 °F /  -18.8 °C -2.7 °F /  -19.3 °C 1030.0 in /  34875.8 hPa Calm     94 % 0.0 in /  0 mm
21:45 -2.1 °F /  -18.9 °C -2.9 °F /  -19.4 °C 1030.0 in /  34875.8 hPa Calm     94 % 0.0 in /  0 mm
22:00 -2.2 °F /  -19 °C -3.0 °F /  -19.4 °C 1030.0 in /  34875.8 hPa Calm     94 % 0.0 in /  0 mm
22:15 -2.3 °F /  -19.1 °C -3.0 °F /  -19.4 °C 1030.0 in /  34875.8 hPa Calm     95 % 0.0 in /  0 mm
22:30 -2.4 °F /  -19.1 °C -3.1 °F /  -19.5 °C 1030.4 in /  34889.3 hPa Calm     95 % 0.0 in /  0 mm
23:00 -2.6 °F /  -19.2 °C -3.3 °F /  -19.6 °C 1030.7 in /  34899.5 hPa Calm     95 % 0.0 in /  0 mm
23:15 -2.6 °F /  -19.2 °C -3.3 °F /  -19.6 °C 1030.7 in /  34899.5 hPa Calm     95 % 0.0 in /  0 mm
Esan sääasema
Terveisin Weather Underground - 2.75 mb

Alkuperäinen skripti  Jim McMurry - jmcmurry@mwt.net Sovitettu myös templatelle  Wim van der Kuil - Leuven-Template.eu

Laitteet joita käytämme:

Sääasema
Davis VP2

Sääasemaohjelma
Cumulus

Sääaseman tietokone
Asus EeePC

Palveluntarjoaja
Suncomet

Davis VP2

Cumulus

Asus EeePC

Suncomet